Terminal Aerodrome Forecast
Issued by NWS Blacksburg, VA

Home | Current Version | Previous Version | Text Only | Print | Product List | Glossary On
Versions: 1 2 3 4 5 6 7 8 9 10 11 12 13 14
000
FTUS41 KRNK 191738
TAFROA
TAF
KROA 191738Z 1918/2018 00000KT P6SM OVC004
     FM192200 16004KT P6SM BKN025
     FM200100 VRB03KT P6SM SCT035
     FM200800 VRB03KT 4SM BR SCT020
     FM201200 VRB03KT P6SM SCT020
     FM201400 20007KT P6SM SKC=

USA.gov is the U.S. government's official web portal to all federal, state and local government web resources and services.